Arcadia Lakes, South Carolina
Current Conditions -  °F | °C
As of 7:53 PM on Monday 26 Jan 2015 (Local Time) from KCUB Reporting Station
Overcast Overcast  
Wind Chill: 51°   Ceiling: 5000
Heat Index: 51°   Visibility: 10mi
Dew Point: 30°   Wind: 9mph
Humidity: 44%   Direction: 310°NW
Pressure: 29.76"   Gusts: NA
Location:  34.025°N, 80.9562°W
Report Text: KCUB 270053Z AUTO 31008KT 10SM BKN050 OVC060 11/M01 A2976 RMK AO2 SLP078 T01061011
Loading
Personal Weather Stations






























Interactive Weather Map New forecast layout! Learn more

10-Day Weather Forecast

Advertisements
Track Severe Weather on mobile